Wauneta, Nebraska
Current Conditions -  °F | °C
As of 9:22 AM on Tuesday 21 Oct 2014 (Local Time) from KIML Reporting Station
Haze Haze  
Wind Chill: 56°   Ceiling: 200
Heat Index: 56°   Visibility: 1.5mi
Dew Point: 54°   Wind: 9mph
Humidity: 93%   Direction: 170°S
Pressure: 30.04"   Gusts: NA
Location:  40.42°N, 101.37°W
Report Text: KIML 211522Z AUTO 17008KT 1 1/2SM BR OVC002 13/12 A3004 RMK AO2 T01330122
Loading
Personal Weather Stations






























Interactive Weather Map
Tropical Storm Tracking
New forecast layout! Learn more

10-Day Weather Forecast

Advertisements
Track Severe Weather on mobile